createdAt,value
2018-06-07T00:02:46.991Z,1008.8
2018-06-07T00:24:27.627Z,1008.6
2018-06-07T00:35:08.719Z,1008.7
2018-06-07T00:46:05.091Z,1008.7
2018-06-07T00:57:11.298Z,1008.7
2018-06-07T01:19:23.449Z,1008.8
2018-06-07T01:30:32.264Z,1008.7
2018-06-07T01:42:02.590Z,1008.9
2018-06-07T01:53:50.936Z,1008.9
2018-06-07T02:05:00.219Z,1008.9
2018-06-07T02:17:30.311Z,1008.9
2018-06-07T02:28:56.070Z,1008.9
2018-06-07T02:40:15.354Z,1008.9
2018-06-07T02:51:25.078Z,1008.8
2018-06-07T03:02:51.413Z,1008.9
2018-06-07T03:25:10.356Z,1009.0
2018-06-07T03:57:01.534Z,1009.3
2018-06-07T04:07:20.819Z,1009.3
2018-06-07T04:18:58.604Z,1009.3
2018-06-07T04:51:06.283Z,1009.3
2018-06-07T05:03:25.319Z,1009.5
2018-06-07T05:14:10.570Z,1009.5
2018-06-07T05:25:13.909Z,1009.7
2018-06-07T05:36:28.146Z,1009.9
2018-06-07T05:47:32.969Z,1009.9
2018-06-07T05:58:46.212Z,1010.0
2018-06-07T06:20:14.673Z,1010.0
2018-06-07T06:44:39.334Z,1009.9
2018-06-07T06:54:53.576Z,1010.0
2018-06-07T07:06:44.198Z,1010.1
2018-06-07T07:18:04.017Z,1010.0
2018-06-07T07:46:07.321Z,1009.8
2018-06-07T07:56:50.016Z,1009.8
2018-06-07T08:18:27.368Z,1009.7
2018-06-07T08:30:34.698Z,1009.8
2018-06-07T08:41:19.166Z,1009.9
2018-06-07T08:53:19.237Z,1010.0
2018-06-07T09:04:57.863Z,1009.9
2018-06-07T09:16:49.811Z,1010.0
2018-06-07T09:27:04.241Z,1010.3
2018-06-07T09:38:15.460Z,1010.0
2018-06-07T09:58:46.149Z,1009.6
2018-06-07T10:10:21.373Z,1009.6
2018-06-07T10:22:56.576Z,1009.6
2018-06-07T10:33:09.921Z,1009.5
2018-06-07T10:43:24.307Z,1009.4
2018-06-07T10:53:39.091Z,1009.4
2018-06-07T11:24:36.603Z,1009.3
2018-06-07T11:52:31.954Z,1009.4
2018-06-07T12:03:22.726Z,1009.2
2018-06-07T12:13:38.631Z,1009.1
2018-06-07T12:25:05.522Z,1009.2
2018-06-07T13:19:41.465Z,1009.0
2018-06-07T13:30:51.888Z,1008.8
2018-06-07T14:27:11.177Z,1008.3
2018-06-07T14:38:08.391Z,1008.2
2018-06-07T14:49:23.898Z,1008.2
2018-06-07T15:00:40.554Z,1008.2
2018-06-07T15:10:54.855Z,1008.2
2018-06-07T15:34:15.057Z,1007.9
2018-06-07T15:44:44.050Z,1008.0
2018-06-07T15:54:58.857Z,1008.1
2018-06-07T16:05:13.483Z,1008.1
2018-06-07T16:15:27.950Z,1008.1
2018-06-07T16:40:53.993Z,1008.2
2018-06-07T16:59:33.099Z,1008.1
2018-06-07T17:10:17.494Z,1008.1
2018-06-07T17:20:29.528Z,1008.0
2018-06-07T17:30:43.775Z,1008.0
2018-06-07T17:41:12.253Z,1008.2
2018-06-07T17:51:26.114Z,1008.1
2018-06-07T18:01:40.440Z,1008.2
2018-06-07T18:11:54.671Z,1008.3
2018-06-07T18:22:44.009Z,1008.3
2018-06-07T18:32:55.935Z,1008.4
2018-06-07T18:43:09.733Z,1008.6
2018-06-07T18:53:24.180Z,1008.5
2018-06-07T19:05:10.597Z,1008.6
2018-06-07T19:27:06.208Z,1008.5
2018-06-07T19:37:22.138Z,1008.8
2018-06-07T19:50:04.350Z,1009.0
2018-06-07T20:28:49.173Z,1009.2
2018-06-07T20:42:04.666Z,1009.2
2018-06-07T21:06:43.616Z,1009.2
2018-06-07T21:17:27.931Z,1009.2
2018-06-07T21:28:12.469Z,1009.1
2018-06-07T21:38:57.455Z,1009.0
2018-06-07T21:49:44.974Z,1009.0
2018-06-07T21:59:57.073Z,1009.0
2018-06-07T22:10:11.851Z,1008.9
2018-06-07T22:20:26.180Z,1008.8
2018-06-07T22:30:40.393Z,1008.8
2018-06-07T22:40:54.066Z,1008.9
2018-06-07T22:51:08.669Z,1008.9
2018-06-07T23:01:53.229Z,1008.8
2018-06-07T23:12:05.047Z,1008.8
2018-06-07T23:22:18.918Z,1008.7
2018-06-07T23:33:03.976Z,1008.8
2018-06-07T23:43:18.102Z,1008.7
2018-06-07T23:54:02.464Z,1008.6
